Time;durP1;ratioP1;P1;durP2;ratioP2;P2;SDS_P1;SDS_P2;PMS_P1;PMS_P2;Temp;Humidity;BMP_temperature;BMP_pressure;BME280_temperature;BME280_humidity;BME280_pressure;Samples;Min_cycle;Max_cycle;Signal;HPM_P1;HPM_P2
2023/07/10 00:03:52;;;;;;;7.82;3.45;;;;;;;22.63;44.72;100139.34;7738636;32;40783;-82
2023/07/10 00:08:09;;;;;;;7.80;3.75;;;;;;;22.60;44.29;100137.25;7733723;32;38884;-81
2023/07/10 00:12:25;;;;;;;6.30;3.40;;;;;;;22.56;44.14;100141.84;7736075;32;38484;-81
2023/07/10 00:16:41;;;;;;;6.68;3.35;;;;;;;22.72;43.78;100142.81;7727918;32;39039;-81
2023/07/10 00:20:57;;;;;;;6.32;3.28;;;;;;;22.47;44.50;100142.78;7720638;32;39879;-81
2023/07/10 00:25:18;;;;;;;6.47;3.40;;;;;;;22.41;44.64;100141.38;7723621;32;38678;-80
2023/07/10 00:29:34;;;;;;;6.07;3.65;;;;;;;22.46;44.22;100137.56;7717709;32;36504;-81
2023/07/10 00:33:51;;;;;;;7.30;3.37;;;;;;;22.30;44.69;100129.91;7729368;32;40269;-81
2023/07/10 00:38:22;;;;;;;8.32;3.75;;;;;;;22.37;44.33;100134.91;7729104;32;39665;-81
2023/07/10 00:42:38;;;;;;;7.68;3.85;;;;;;;22.31;44.86;100141.81;7730301;32;38763;-82
2023/07/10 00:47:06;;;;;;;7.85;3.90;;;;;;;22.34;44.84;100135.56;7729741;32;36986;-81
2023/07/10 00:51:28;;;;;;;7.70;4.12;;;;;;;22.06;46.40;100141.69;7719058;32;39079;-81
2023/07/10 00:55:45;;;;;;;11.60;3.30;;;;;;;21.97;47.02;100138.16;7715799;32;39959;-81
2023/07/10 01:00:17;;;;;;;9.40;4.40;;;;;;;21.69;46.96;100133.19;7717987;32;37769;-80
2023/07/10 01:04:34;;;;;;;9.02;3.60;;;;;;;21.86;47.16;100134.19;7711443;32;36873;-81
2023/07/10 01:08:59;;;;;;;7.90;3.92;;;;;;;21.71;47.12;100138.41;7715299;32;40041;-82
2023/07/10 01:13:15;;;;;;;8.13;4.35;;;;;;;21.79;47.11;100131.97;7724403;32;39668;-81
2023/07/10 01:17:33;;;;;;;7.97;4.07;;;;;;;22.02;46.39;100131.59;7727575;32;38681;-81
2023/07/10 01:21:50;;;;;;;7.37;4.12;;;;;;;22.05;45.89;100134.50;7722426;32;37928;-81
2023/07/10 01:26:07;;;;;;;6.35;3.58;;;;;;;22.04;45.92;100132.91;7721592;32;39396;-81
2023/07/10 01:30:31;;;;;;;5.62;3.50;;;;;;;21.91;46.24;100136.78;7737515;32;39997;-80
2023/07/10 01:35:09;;;;;;;6.65;3.90;;;;;;;21.97;46.14;100127.06;7737428;32;39239;-81
2023/07/10 01:39:47;;;;;;;6.18;3.05;;;;;;;21.86;46.20;100135.00;7737538;32;37825;-81
2023/07/10 01:44:23;;;;;;;6.55;3.87;;;;;;;21.80;46.45;100128.06;7723383;32;39765;-81
2023/07/10 01:48:39;;;;;;;6.07;4.15;;;;;;;21.65;46.99;100140.56;7723866;32;39746;-81
2023/07/10 01:52:56;;;;;;;8.60;3.90;;;;;;;21.58;47.50;100140.28;7737107;32;38878;-81
2023/07/10 01:57:14;;;;;;;6.72;4.15;;;;;;;21.69;46.86;100132.37;7737077;32;37155;-81
2023/07/10 02:01:30;;;;;;;6.90;3.78;;;;;;;21.61;47.29;100139.63;7736874;32;40086;-81
2023/07/10 02:05:46;;;;;;;7.78;4.12;;;;;;;21.68;46.88;100137.12;7712018;32;38273;-81
2023/07/10 02:10:03;;;;;;;7.95;3.90;;;;;;;21.79;46.46;100134.75;7710016;32;37922;-81
2023/07/10 02:14:20;;;;;;;6.68;3.55;;;;;;;21.71;46.47;100125.34;7732017;32;36823;-81
2023/07/10 02:18:36;;;;;;;5.50;3.25;;;;;;;21.70;46.73;100129.25;7736277;32;39398;-81
2023/07/10 02:22:53;;;;;;;9.68;3.97;;;;;;;21.67;46.75;100124.38;7736277;32;39883;-81
2023/07/10 02:27:09;;;;;;;6.60;3.78;;;;;;;21.56;47.08;100123.19;7718439;32;38006;-81
2023/07/10 02:31:26;;;;;;;6.85;3.60;;;;;;;21.49;47.36;100133.97;7709503;32;36902;-81
2023/07/10 02:35:43;;;;;;;7.47;3.70;;;;;;;21.37;47.83;100121.66;7711486;32;39382;-81
2023/07/10 02:39:59;;;;;;;8.93;3.85;;;;;;;21.42;47.53;100130.91;7712929;32;39980;-81
2023/07/10 02:44:15;;;;;;;7.90;3.83;;;;;;;21.34;47.61;100138.94;7712895;32;37754;-81
2023/07/10 02:48:32;;;;;;;5.70;3.50;;;;;;;21.40;47.80;100131.25;7734647;32;37811;-81
2023/07/10 02:52:48;;;;;;;8.30;4.07;;;;;;;21.46;47.89;100123.56;7739546;32;40221;-81
2023/07/10 02:57:05;;;;;;;7.47;3.22;;;;;;;21.37;47.77;100120.84;7731413;32;40778;-81
2023/07/10 03:01:26;;;;;;;7.50;3.60;;;;;;;21.64;46.86;100122.28;7712487;32;38035;-80
2023/07/10 03:05:42;;;;;;;5.70;3.55;;;;;;;21.57;46.99;100130.34;7712825;32;37398;-80
2023/07/10 03:09:59;;;;;;;7.40;3.97;;;;;;;21.41;48.54;100120.97;7736985;32;40060;-80
2023/07/10 03:14:15;;;;;;;8.25;3.58;;;;;;;21.32;49.31;100110.75;7725340;32;40840;-80
2023/07/10 03:18:31;;;;;;;6.47;3.72;;;;;;;21.31;49.11;100111.87;7739353;32;38780;-81
2023/07/10 03:22:49;;;;;;;6.53;3.97;;;;;;;21.27;49.01;100108.19;7739227;32;37805;-81
2023/07/10 03:27:06;;;;;;;7.78;3.42;;;;;;;21.30;48.63;100110.28;7739250;32;39246;-81
2023/07/10 03:31:22;;;;;;;5.90;3.62;;;;;;;21.22;48.93;100113.91;7727392;32;40003;-81
2023/07/10 03:35:38;;;;;;;8.80;3.65;;;;;;;21.57;48.03;100116.47;7712229;32;38044;-82
2023/07/10 03:39:55;;;;;;;12.52;4.18;;;;;;;21.67;47.91;100104.16;7712147;32;37028;-81
2023/07/10 03:44:11;;;;;;;7.65;4.00;;;;;;;21.74;47.95;100102.44;7711726;32;39501;-81
2023/07/10 03:48:27;;;;;;;6.18;3.92;;;;;;;21.80;47.66;100103.09;7712188;32;40613;-81
2023/07/10 03:52:44;;;;;;;6.57;3.50;;;;;;;21.67;47.81;100118.84;7712079;32;37957;-80
2023/07/10 03:57:00;;;;;;;8.15;3.30;;;;;;;21.63;48.52;100117.91;7726978;32;36837;-81
2023/07/10 04:01:17;;;;;;;7.47;3.80;;;;;;;21.68;48.83;100098.28;7738732;32;40086;-82
2023/07/10 04:05:34;;;;;;;6.85;3.60;;;;;;;21.75;48.85;100104.09;7738780;32;39729;-81
2023/07/10 04:09:52;;;;;;;7.28;3.70;;;;;;;22.00;48.27;100109.75;7724942;32;38807;-81
2023/07/10 04:14:08;;;;;;;6.47;4.03;;;;;;;22.03;48.36;100103.50;7738574;32;35974;-81
2023/07/10 04:18:32;;;;;;;9.70;3.83;;;;;;;22.00;48.83;100104.19;7728788;32;39359;-81
2023/07/10 04:22:48;;;;;;;;;;;;;;;21.83;49.75;100104.34;7712104;32;41060;-81
2023/07/10 04:27:04;;;;;;;6.37;3.70;;;;;;;21.88;49.87;100106.91;7723060;32;39078;-81
2023/07/10 04:31:21;;;;;;;6.97;4.20;;;;;;;21.76;51.47;100105.69;7738505;32;37224;-81
2023/07/10 04:35:39;;;;;;;10.88;4.18;;;;;;;21.76;52.08;100105.69;7738644;32;40223;-82
2023/07/10 04:39:55;;;;;;;8.20;3.87;;;;;;;21.78;52.34;100101.78;7738235;32;40076;-81
2023/07/10 04:44:11;;;;;;;6.70;3.90;;;;;;;21.93;51.95;100101.97;7738342;32;37723;-81
2023/07/10 04:48:27;;;;;;;10.15;4.22;;;;;;;22.13;51.50;100097.53;7724602;32;36844;-81
2023/07/10 04:52:44;;;;;;;6.82;4.07;;;;;;;22.09;52.60;100096.59;7711386;32;40161;-81
2023/07/10 04:57:00;;;;;;;8.50;4.12;;;;;;;22.32;52.12;100093.44;7710410;32;40028;-81
2023/07/10 05:01:18;;;;;;;9.93;4.35;;;;;;;22.44;51.58;100087.91;7711119;32;38729;-80
2023/07/10 05:05:35;;;;;;;8.00;4.35;;;;;;;22.60;52.27;100092.81;7711019;32;37827;-80
2023/07/10 05:09:51;;;;;;;10.43;4.12;;;;;;;22.73;52.33;100101.94;7711384;32;39427;-78
2023/07/10 05:14:07;;;;;;;8.95;4.18;;;;;;;22.92;51.52;100104.97;7737811;32;39667;-78
2023/07/10 05:18:25;;;;;;;6.97;3.58;;;;;;;23.06;51.34;100094.34;7737820;32;38533;-78
2023/07/10 05:22:42;;;;;;;8.57;4.00;;;;;;;23.39;49.35;100112.03;7737868;32;36679;-76
2023/07/10 05:26:58;;;;;;;8.77;4.12;;;;;;;23.63;49.87;100105.59;7738209;32;39326;-79
2023/07/10 05:31:14;;;;;;;10.63;4.03;;;;;;;23.75;48.52;100099.16;7728426;32;39984;-79
2023/07/10 05:35:31;;;;;;;11.30;4.32;;;;;;;24.06;47.60;100092.09;7710728;32;38037;-78
2023/07/10 05:39:47;;;;;;;10.15;3.95;;;;;;;24.15;47.42;100096.34;7715023;32;37926;-77
2023/07/10 05:44:06;;;;;;;8.95;3.90;;;;;;;24.32;48.35;100098.00;7715000;32;39855;-75
2023/07/10 05:48:22;;;;;;;7.10;4.20;;;;;;;24.53;47.83;100094.16;7710776;32;39730;-76
2023/07/10 05:52:38;;;;;;;7.72;3.67;;;;;;;24.76;47.05;100091.56;7712505;32;38760;-76
2023/07/10 05:56:55;;;;;;;7.87;3.75;;;;;;;24.79;47.46;100099.22;7736719;32;37189;-72
2023/07/10 06:01:12;;;;;;;8.82;4.07;;;;;;;24.86;47.25;100093.81;7736904;32;39455;-72
2023/07/10 06:05:28;;;;;;;10.15;5.12;;;;;;;24.83;46.57;100104.87;7722836;32;40946;-72
2023/07/10 06:09:45;;;;;;;15.95;7.55;;;;;;;25.15;46.27;100090.88;7733082;32;37915;-72
2023/07/10 06:14:01;;;;;;;24.85;14.70;;;;;;;25.11;46.96;100094.41;7722013;32;36914;-71
2023/07/10 06:18:19;;;;;;;25.10;12.82;;;;;;;24.90;49.66;100093.91;7730660;32;39285;-83
2023/07/10 06:22:35;;;;;;;20.17;10.90;;;;;;;25.41;48.21;100082.75;7726060;32;39988;-82
2023/07/10 06:26:51;;;;;;;19.42;9.88;;;;;;;25.67;46.72;100076.50;7717435;32;38727;-83
2023/07/10 06:31:10;;;;;;;18.02;9.80;;;;;;;25.73;45.45;100085.41;7713134;32;37832;-83
2023/07/10 06:35:27;;;;;;;16.92;7.90;;;;;;;25.85;46.24;100076.91;7713074;32;39344;-82
2023/07/10 06:39:43;;;;;;;14.20;7.78;;;;;;;26.02;45.17;100080.41;7715810;32;40797;-84
2023/07/10 06:43:59;;;;;;;14.93;6.85;;;;;;;26.34;45.21;100081.03;7737439;32;38577;-83
2023/07/10 06:48:16;;;;;;;15.02;6.53;;;;;;;26.40;44.67;100076.72;7719698;32;37741;-84
2023/07/10 06:52:33;;;;;;;14.40;6.28;;;;;;;26.76;44.61;100079.34;7712762;32;39128;-84
2023/07/10 06:56:49;;;;;;;11.52;6.03;;;;;;;27.22;43.65;100076.47;7713676;32;40922;-82
2023/07/10 07:01:07;;;;;;;11.55;6.35;;;;;;;27.59;43.44;100074.97;7728713;32;38720;-75
2023/07/10 07:05:23;;;;;;;13.82;5.70;;;;;;;27.73;43.70;100072.34;7719145;32;38006;-76
2023/07/10 07:09:39;;;;;;;12.30;5.50;;;;;;;28.17;42.20;100059.66;7727008;32;40065;-77
2023/07/10 07:13:55;;;;;;;9.90;5.53;;;;;;;28.53;42.35;100051.53;7732123;32;39655;-77
2023/07/10 07:18:12;;;;;;;12.25;5.50;;;;;;;28.62;40.68;100052.06;7739051;32;38530;-81
2023/07/10 07:22:28;;;;;;;10.23;4.70;;;;;;;28.24;42.18;100051.31;7733512;32;37399;-84
2023/07/10 07:26:44;;;;;;;9.15;4.68;;;;;;;28.84;42.25;100044.63;7712431;32;39962;-81
2023/07/10 07:31:02;;;;;;;9.45;4.37;;;;;;;29.20;40.02;100048.50;7712284;32;39892;-85
2023/07/10 07:35:19;;;;;;;11.40;4.53;;;;;;;29.58;39.95;100051.88;7719757;32;38870;-88
2023/07/10 07:39:35;;;;;;;10.90;4.47;;;;;;;29.61;39.85;100030.59;7721864;32;36910;-84
2023/07/10 07:43:51;;;;;;;7.93;4.45;;;;;;;29.74;39.87;100039.50;7719904;32;39064;-86
2023/07/10 07:48:08;;;;;;;8.13;4.78;;;;;;;29.96;39.19;100037.56;7722782;32;39813;-84
2023/07/10 07:52:24;;;;;;;10.02;4.80;;;;;;;29.96;38.88;100031.97;7738790;32;38075;-74
2023/07/10 07:56:40;;;;;;;10.00;4.60;;;;;;;30.10;38.36;100036.81;7727438;32;37225;-73
2023/07/10 08:00:57;;;;;;;8.00;4.97;;;;;;;30.09;38.60;100032.38;7729401;32;40035;-74
2023/07/10 08:05:13;;;;;;;7.40;4.40;;;;;;;30.02;38.92;100032.34;7734682;32;40219;-85
2023/07/10 08:09:49;;;;;;;11.48;4.55;;;;;;;30.29;38.23;100027.97;7726069;32;38276;-86
2023/07/10 08:14:05;;;;;;;9.57;4.32;;;;;;;30.56;37.99;100027.59;7715863;32;36818;-86
2023/07/10 08:18:22;;;;;;;8.27;4.70;;;;;;;30.47;37.41;100016.75;7711781;32;39368;-86
2023/07/10 08:22:38;;;;;;;8.48;4.45;;;;;;;30.61;36.55;100021.56;7726480;32;40036;-86
2023/07/10 08:26:56;;;;;;;8.93;4.75;;;;;;;30.88;36.29;100007.06;7737978;32;37936;-87
2023/07/10 08:31:12;;;;;;;8.70;4.45;;;;;;;30.88;35.97;100018.31;7749656;32;37131;-85
2023/07/10 08:35:29;;;;;;;12.25;4.90;;;;;;;31.06;36.38;100021.94;7764567;32;40374;-85
2023/07/10 08:39:45;;;;;;;8.00;4.60;;;;;;;31.44;35.52;100010.09;7751112;32;40000;-84
2023/07/10 08:44:01;;;;;;;8.68;4.05;;;;;;;31.62;35.76;100010.88;7725089;32;37680;-87
2023/07/10 08:48:39;;;;;;;7.47;4.53;;;;;;;31.56;34.90;100003.25;7737386;32;37272;-86
2023/07/10 08:53:11;;;;;;;8.25;4.60;;;;;;;31.48;34.41;100005.28;7723466;32;39134;-87
2023/07/10 08:57:34;;;;;;;6.82;4.35;;;;;;;31.52;33.52;99996.84;7737610;32;40820;-86
2023/07/10 09:01:50;;;;;;;10.10;5.03;;;;;;;31.47;34.66;99998.03;7717821;32;38037;-85
2023/07/10 09:06:17;;;;;;;8.73;4.57;;;;;;;31.62;34.42;99998.81;7715263;32;37819;-85
2023/07/10 09:10:36;;;;;;;9.13;4.60;;;;;;;31.87;33.60;99993.00;7703242;32;39843;-86
2023/07/10 09:15:01;;;;;;;7.87;4.70;;;;;;;31.61;34.49;99989.53;7710066;32;39989;-86
2023/07/10 09:19:19;;;;;;;13.00;5.12;;;;;;;31.51;35.12;99986.78;7708761;32;38414;-87
2023/07/10 09:23:35;;;;;;;10.85;5.15;;;;;;;31.69;34.51;99986.69;7709156;32;37020;-86
2023/07/10 09:27:52;;;;;;;9.00;4.93;;;;;;;31.81;34.99;99978.53;7730590;32;39026;-86
2023/07/10 09:32:14;;;;;;;12.77;5.20;;;;;;;31.99;34.38;99972.81;7715647;32;40002;-86
2023/07/10 09:36:30;;;;;;;8.23;4.93;;;;;;;32.48;34.90;99969.19;7729121;32;38399;-86
2023/07/10 09:40:49;;;;;;;9.63;5.00;;;;;;;32.83;33.84;99965.22;7717999;32;37717;-86
2023/07/10 09:45:07;;;;;;;9.52;5.12;;;;;;;32.15;34.64;99969.47;7712032;32;38335;-86
2023/07/10 09:49:23;;;;;;;17.90;5.35;;;;;;;32.18;34.17;99963.00;7707978;32;41262;-86
2023/07/10 09:53:45;;;;;;;8.68;5.10;;;;;;;32.65;33.83;99967.44;7706061;32;38622;-87
2023/07/10 09:58:03;;;;;;;9.80;5.07;;;;;;;32.34;33.13;99958.81;7722469;32;37229;-86
2023/07/10 10:02:21;;;;;;;10.05;4.68;;;;;;;32.56;32.95;99954.59;7722723;32;39001;-86
2023/07/10 10:06:41;;;;;;;8.77;4.50;;;;;;;32.75;32.78;99960.88;7710909;32;40800;-85
2023/07/10 10:11:05;;;;;;;15.30;5.10;;;;;;;33.01;32.67;99947.28;7720894;32;37829;-84
2023/07/10 10:16:03;;;;;;;11.63;5.15;;;;;;;33.39;32.38;99948.03;7735826;32;38527;-86
2023/07/10 10:20:29;;;;;;;8.60;4.45;;;;;;;33.39;32.21;99952.88;7735605;32;40226;-85
2023/07/10 10:24:46;;;;;;;10.23;4.37;;;;;;;33.64;31.46;99942.03;7722304;32;40160;-86
2023/07/10 10:29:02;;;;;;;14.80;4.93;;;;;;;33.83;31.16;99936.94;7721791;32;37973;-87
2023/07/10 10:33:39;;;;;;;6.75;4.25;;;;;;;33.53;31.81;99927.25;7735616;32;37272;-86
2023/07/10 10:37:59;;;;;;;10.45;4.70;;;;;;;34.08;29.46;99932.87;7712221;32;40219;-80
2023/07/10 10:42:18;;;;;;;6.68;4.45;;;;;;;33.85;29.31;99928.81;7704133;32;40857;-81
2023/07/10 10:46:55;;;;;;;10.02;4.22;;;;;;;34.16;27.26;99928.72;7733700;32;38036;-83
2023/07/10 10:51:33;;;;;;;9.90;4.57;;;;;;;33.77;27.46;99932.97;7723527;32;37224;-84
2023/07/10 10:56:21;;;;;;;8.63;4.43;;;;;;;33.45;27.54;99929.38;7736726;32;39037;-84
2023/07/10 11:01:02;;;;;;;9.90;5.25;;;;;;;33.89;27.53;99918.22;7721899;32;39607;-84
2023/07/10 11:06:00;;;;;;;9.35;4.70;;;;;;;34.45;27.29;99917.72;7731533;32;38656;-84
2023/07/10 11:10:33;;;;;;;11.00;4.80;;;;;;;34.29;26.79;99915.59;7680640;32;36834;-86
2023/07/10 11:14:53;;;;;;;9.82;4.25;;;;;;;34.50;26.29;99910.75;7718299;32;39543;-85
2023/07/10 11:19:18;;;;;;;11.38;4.68;;;;;;;34.90;26.90;99905.94;7707937;32;41258;-86
2023/07/10 11:23:43;;;;;;;7.40;4.57;;;;;;;34.83;26.19;99910.97;7710208;32;37176;-83
2023/07/10 11:28:21;;;;;;;10.70;4.10;;;;;;;34.24;26.77;99904.75;7721286;32;37785;-86
2023/07/10 11:33:25;;;;;;;7.60;4.12;;;;;;;34.43;24.63;99897.53;7732335;32;40112;-84
2023/07/10 11:37:51;;;;;;;8.05;4.18;;;;;;;34.73;24.64;99890.12;7711972;32;40524;-84
2023/07/10 11:42:16;;;;;;;8.43;4.50;;;;;;;34.49;25.07;99895.00;7724340;32;38643;-85
2023/07/10 11:46:34;;;;;;;11.68;4.15;;;;;;;34.83;24.23;99893.97;7730981;32;37255;-85
2023/07/10 11:50:54;;;;;;;7.80;4.20;;;;;;;35.43;23.80;99872.03;7739025;32;39492;-85
2023/07/10 11:55:23;;;;;;;7.62;4.00;;;;;;;35.66;22.04;99867.44;7739051;32;40792;-86
2023/07/10 11:59:45;;;;;;;6.70;4.03;;;;;;;35.02;23.46;99872.53;7719020;32;37938;-85
2023/07/10 12:04:04;;;;;;;7.75;4.30;;;;;;;34.51;24.33;99869.91;7699057;32;37623;-84
2023/07/10 12:08:23;;;;;;;7.28;4.10;;;;;;;34.28;24.18;99865.88;7698666;32;39354;-84
2023/07/10 12:12:39;;;;;;;7.93;3.72;;;;;;;34.52;24.76;99869.47;7712017;32;40538;-84
2023/07/10 12:16:57;;;;;;;7.18;4.30;;;;;;;34.73;22.99;99868.25;7711629;32;38661;-85
2023/07/10 12:21:34;;;;;;;6.72;3.65;;;;;;;35.23;24.28;99860.75;7700495;32;37293;-86
2023/07/10 12:25:52;;;;;;;8.45;3.87;;;;;;;35.39;22.03;99857.13;7711619;32;40219;-86
2023/07/10 12:30:21;;;;;;;8.20;4.00;;;;;;;35.69;21.68;99858.06;7713559;32;40750;-86
2023/07/10 12:34:37;;;;;;;8.05;4.00;;;;;;;35.65;22.05;99848.81;7737972;32;38688;-86
2023/07/10 12:38:56;;;;;;;8.70;4.05;;;;;;;35.12;23.00;99852.47;7724695;32;37837;-85
2023/07/10 12:43:23;;;;;;;15.15;4.40;;;;;;;34.89;24.41;99855.41;7719091;32;39340;-86
2023/07/10 12:47:40;;;;;;;7.05;3.97;;;;;;;34.57;24.24;99862.50;7719876;32;39642;-85
2023/07/10 12:52:13;;;;;;;8.20;3.87;;;;;;;34.85;23.53;99852.66;7711276;32;37906;-85
2023/07/10 12:56:34;;;;;;;10.02;4.10;;;;;;;34.82;24.61;99858.38;7716605;32;37936;-89
2023/07/10 13:01:03;;;;;;;6.05;3.78;;;;;;;34.49;24.58;99858.22;7720723;32;38720;-82
2023/07/10 13:05:31;;;;;;;6.60;3.87;;;;;;;34.68;25.17;99854.59;7737918;32;40836;-82
2023/07/10 13:09:56;;;;;;;6.53;3.92;;;;;;;34.23;23.88;99847.38;7737802;32;38613;-79
2023/07/10 13:14:30;;;;;;;9.57;4.00;;;;;;;34.45;24.40;99846.19;7737669;32;37359;-78
2023/07/10 13:18:49;;;;;;;8.35;4.55;;;;;;;35.09;25.98;99836.34;7715870;32;39081;-81
2023/07/10 13:23:05;;;;;;;8.77;3.53;;;;;;;36.01;22.39;99830.94;7709101;32;40559;-82
2023/07/10 13:27:24;;;;;;;8.50;3.60;;;;;;;35.79;23.89;99817.31;7710888;32;37837;-82
2023/07/10 13:31:41;;;;;;;13.30;4.10;;;;;;;36.77;19.38;99815.47;7710837;32;36128;-82
2023/07/10 13:35:58;;;;;;;5.87;3.62;;;;;;;37.14;20.54;99811.06;7710758;32;39356;-81
2023/07/10 13:40:23;;;;;;;9.18;4.03;;;;;;;36.94;21.22;99808.44;7710853;32;40757;-80
2023/07/10 13:44:43;;;;;;;10.13;3.90;;;;;;;36.51;21.29;99809.69;7731118;32;37597;-82
2023/07/10 13:49:04;;;;;;;9.40;4.43;;;;;;;36.80;20.88;99806.03;7718512;32;37217;-83
2023/07/10 13:53:24;;;;;;;7.47;3.80;;;;;;;36.68;20.82;99801.09;7710043;32;40450;-82
2023/07/10 13:57:40;;;;;;;7.75;3.60;;;;;;;36.13;21.00;99801.81;7726071;32;40877;-82
2023/07/10 14:01:56;;;;;;;8.60;3.65;;;;;;;35.95;22.10;99801.53;7717933;32;38735;-83
2023/07/10 14:06:30;;;;;;;6.53;3.22;;;;;;;36.40;20.77;99806.38;7722539;32;36458;-81
2023/07/10 14:10:47;;;;;;;5.62;3.42;;;;;;;36.14;21.19;99811.13;7721044;32;40110;-81
2023/07/10 14:15:04;;;;;;;7.32;3.40;;;;;;;35.92;21.76;99801.16;7714159;32;39715;-82
2023/07/10 14:19:21;;;;;;;10.88;3.70;;;;;;;35.96;21.17;99788.91;7714168;32;38608;-82
2023/07/10 14:23:37;;;;;;;6.68;3.60;;;;;;;35.80;21.46;99790.53;7729421;32;37186;-81
2023/07/10 14:27:53;;;;;;;5.68;3.60;;;;;;;36.12;22.21;99793.75;7724925;32;39917;-81
2023/07/10 14:32:15;;;;;;;9.25;3.67;;;;;;;36.26;20.45;99805.53;7728329;32;39919;-83
2023/07/10 14:36:31;;;;;;;6.97;3.50;;;;;;;36.25;22.37;99809.59;7723346;32;37512;-82
2023/07/10 14:40:48;;;;;;;6.25;3.30;;;;;;;36.50;20.86;99805.28;7723270;32;37864;-83
2023/07/10 14:45:05;;;;;;;7.87;3.22;;;;;;;36.71;21.57;99801.03;7710175;32;38916;-82
2023/07/10 14:49:22;;;;;;;5.80;3.55;;;;;;;36.76;22.07;99803.31;7724245;32;39826;-82
2023/07/10 14:53:39;;;;;;;6.43;3.30;;;;;;;36.56;22.12;99817.66;7722517;32;38596;-83
2023/07/10 14:57:55;;;;;;;6.07;2.72;;;;;;;36.39;22.29;99818.97;7722885;32;37157;-81
2023/07/10 15:02:16;;;;;;;6.55;3.50;;;;;;;36.07;22.78;99807.25;7723078;32;40064;-82
2023/07/10 15:06:41;;;;;;;6.97;3.35;;;;;;;36.10;23.11;99808.41;7709793;32;40745;-82
2023/07/10 15:10:58;;;;;;;10.23;3.47;;;;;;;36.04;23.10;99805.28;7723102;32;37526;-82
2023/07/10 15:15:15;;;;;;;9.68;4.00;;;;;;;36.17;23.07;99802.53;7719276;32;37260;-82
2023/07/10 15:19:31;;;;;;;11.07;4.25;;;;;;;35.82;23.69;99804.28;7724072;32;39136;-83
2023/07/10 15:23:48;;;;;;;4.70;3.15;;;;;;;35.77;24.44;99797.09;7722954;32;40975;-83
2023/07/10 15:28:05;;;;;;;6.37;3.55;;;;;;;35.57;24.15;99796.41;7722988;32;38768;-82
2023/07/10 15:32:21;;;;;;;6.72;3.45;;;;;;;35.37;22.44;99790.81;7723665;32;37118;-82
2023/07/10 15:36:37;;;;;;;7.15;3.50;;;;;;;35.21;22.93;99788.75;7722598;32;40468;-82
2023/07/10 15:40:56;;;;;;;7.40;3.97;;;;;;;35.08;22.09;99780.94;7722170;32;39781;-81
2023/07/10 15:45:15;;;;;;;10.43;3.83;;;;;;;34.93;22.28;99776.84;7723771;32;36564;-82
2023/07/10 15:49:31;;;;;;;8.18;3.50;;;;;;;35.02;23.27;99774.19;7722602;32;36229;-83
2023/07/10 15:53:48;;;;;;;6.87;3.67;;;;;;;34.94;22.66;99764.25;7723315;32;38993;-82
2023/07/10 15:58:10;;;;;;;7.32;3.85;;;;;;;34.95;22.03;99765.88;7723132;32;39937;-82
2023/07/10 16:02:27;;;;;;;10.00;3.40;;;;;;;34.82;22.77;99770.63;7730702;32;37500;-81
2023/07/10 16:06:44;;;;;;;11.93;4.50;;;;;;;34.79;25.06;99781.59;7724654;32;36996;-81
2023/07/10 16:11:18;;;;;;;12.75;4.53;;;;;;;34.71;25.14;99782.97;7738647;32;39483;-83
2023/07/10 16:15:34;;;;;;;10.05;3.65;;;;;;;34.51;26.88;99777.28;7726127;32;40893;-84
2023/07/10 16:19:51;;;;;;;11.52;4.32;;;;;;;34.42;26.91;99777.09;7738345;32;38829;-83
2023/07/10 16:24:16;;;;;;;8.43;3.72;;;;;;;34.26;27.32;99777.03;7728710;32;37106;-83
2023/07/10 16:28:33;;;;;;;12.18;4.62;;;;;;;34.11;26.89;99776.47;7718635;32;40024;-82
2023/07/10 16:32:51;;;;;;;13.98;4.47;;;;;;;33.94;26.54;99773.53;7723632;32;40888;-82
2023/07/10 16:37:14;;;;;;;19.42;4.72;;;;;;;33.90;27.15;99772.81;7708621;32;36878;-83
2023/07/10 16:41:30;;;;;;;11.00;4.10;;;;;;;33.78;28.18;99773.47;7710152;32;37923;-82
2023/07/10 16:45:47;;;;;;;7.45;3.92;;;;;;;33.73;28.28;99774.75;7721356;32;40139;-84
2023/07/10 16:50:12;;;;;;;;;;;;;;;33.56;29.10;99787.13;7721522;32;39837;-83
2023/07/10 16:54:29;;;;;;;9.32;4.75;;;;;;;33.40;30.29;99810.41;7720781;32;38885;-82
2023/07/10 16:58:45;;;;;;;8.65;4.22;;;;;;;33.19;31.34;99820.81;7721879;32;37836;-82
2023/07/10 17:03:02;;;;;;;8.82;4.68;;;;;;;32.90;29.79;99849.41;7709170;32;39083;-83
2023/07/10 17:07:18;;;;;;;15.23;4.37;;;;;;;32.31;31.20;99875.84;7722267;32;39806;-83
2023/07/10 17:11:37;;;;;;;10.95;3.90;;;;;;;31.15;28.14;99905.25;7721446;32;37852;-82
2023/07/10 17:15:55;;;;;;;13.38;3.62;;;;;;;30.13;29.48;99931.97;7693787;32;37055;-82
2023/07/10 17:20:18;;;;;;;14.90;4.10;;;;;;;30.46;29.18;99922.34;7693870;32;39917;-83
2023/07/10 17:24:35;;;;;;;8.02;3.28;;;;;;;30.21;29.92;99908.28;7695056;32;39974;-82
2023/07/10 17:28:52;;;;;;;9.63;4.12;;;;;;;30.10;29.78;99885.00;7695393;32;37756;-82
2023/07/10 17:33:39;;;;;;;6.57;3.45;;;;;;;29.88;30.57;99856.91;7696023;32;36805;-83
2023/07/10 17:37:55;;;;;;;8.32;4.07;;;;;;;29.71;31.94;99838.00;7696170;32;39327;-82
2023/07/10 17:42:21;;;;;;;7.30;3.87;;;;;;;29.89;31.76;99836.03;7702112;32;40063;-84
2023/07/10 17:46:38;;;;;;;7.03;3.80;;;;;;;29.68;32.17;99821.97;7709392;32;37914;-84
2023/07/10 17:50:55;;;;;;;10.02;4.07;;;;;;;29.58;32.67;99826.37;7700601;32;37015;-84
2023/07/10 17:55:16;;;;;;;6.62;3.62;;;;;;;29.56;33.94;99857.69;7705674;32;39933;-85
2023/07/10 17:59:32;;;;;;;12.40;4.10;;;;;;;29.57;33.29;99859.28;7709035;32;40820;-84
2023/07/10 18:03:52;;;;;;;10.80;3.97;;;;;;;29.20;34.47;99863.22;7693206;32;38756;-81
2023/07/10 18:08:28;;;;;;;10.35;4.25;;;;;;;29.10;34.58;99872.37;7690470;32;37140;-82
2023/07/10 18:12:44;;;;;;;9.70;4.10;;;;;;;28.86;35.78;99882.31;7692339;32;40117;-82
2023/07/10 18:17:00;;;;;;;8.60;4.43;;;;;;;28.98;34.82;99878.37;7690771;32;40812;-83
2023/07/10 18:21:26;;;;;;;9.57;4.18;;;;;;;28.89;36.27;99872.28;7705133;32;37855;-82
2023/07/10 18:25:42;;;;;;;13.85;5.28;;;;;;;28.96;34.95;99878.75;7714093;32;37120;-83
2023/07/10 18:30:02;;;;;;;9.88;4.65;;;;;;;28.80;38.60;99856.66;7691967;32;40164;-83
2023/07/10 18:34:21;;;;;;;10.30;4.65;;;;;;;28.69;37.64;99838.97;7691795;32;40773;-84
2023/07/10 18:38:37;;;;;;;10.27;4.03;;;;;;;28.63;37.62;99834.91;7699390;32;37273;-82
2023/07/10 18:42:53;;;;;;;9.25;4.80;;;;;;;28.44;38.14;99834.00;7718253;32;37949;-82
2023/07/10 18:47:12;;;;;;;9.38;4.70;;;;;;;28.37;36.22;99866.78;7718175;32;40117;-82
2023/07/10 18:51:31;;;;;;;7.32;4.20;;;;;;;28.27;38.74;99877.56;7717985;32;40705;-83
2023/07/10 18:55:47;;;;;;;8.02;4.15;;;;;;;28.14;39.51;99883.88;7715670;32;37653;-81
2023/07/10 19:00:19;;;;;;;9.75;4.25;;;;;;;28.05;39.53;99901.81;7715240;32;37383;-82
2023/07/10 19:04:36;;;;;;;13.60;4.53;;;;;;;28.14;39.30;99892.28;7714750;32;37268;-79
2023/07/10 19:08:52;;;;;;;10.05;4.68;;;;;;;28.00;39.35;99896.56;7697258;32;38944;-81
2023/07/10 19:13:17;;;;;;;9.35;4.30;;;;;;;27.06;43.16;99931.16;7698305;32;38747;-80
2023/07/10 19:17:33;;;;;;;12.32;5.12;;;;;;;27.16;43.55;99922.09;7725185;32;37152;-80
2023/07/10 19:21:50;;;;;;;13.18;4.90;;;;;;;27.02;44.38;99929.50;7728523;32;39885;-80
2023/07/10 19:26:07;;;;;;;9.60;4.90;;;;;;;27.02;45.44;99940.69;7722118;32;39890;-80
2023/07/10 19:30:23;;;;;;;7.90;4.72;;;;;;;26.33;48.87;99983.56;7727279;32;38043;-81
2023/07/10 19:34:40;;;;;;;10.27;4.95;;;;;;;25.90;50.62;99993.97;7728805;32;36753;-82
2023/07/10 19:38:58;;;;;;;6.65;4.22;;;;;;;26.03;51.83;99965.53;7726882;32;40129;-82
2023/07/10 19:43:15;;;;;;;10.23;4.30;;;;;;;26.01;52.49;99979.06;7726386;32;39368;-84
2023/07/10 19:47:31;;;;;;;13.25;4.72;;;;;;;25.97;52.45;99952.25;7718782;32;38732;-81
2023/07/10 19:51:48;;;;;;;10.38;4.72;;;;;;;25.92;52.36;99963.69;7738990;32;37067;-84
2023/07/10 19:56:19;;;;;;;8.32;4.60;;;;;;;25.76;53.21;99981.34;7734371;32;39348;-80
2023/07/10 20:00:37;;;;;;;8.02;4.68;;;;;;;25.76;53.38;99966.59;7705489;32;40035;-80
2023/07/10 20:04:55;;;;;;;8.23;4.57;;;;;;;25.69;52.67;99944.94;7728792;32;37641;-80
2023/07/10 20:09:21;;;;;;;9.32;4.60;;;;;;;25.97;51.77;99938.28;7732232;32;36857;-80
2023/07/10 20:13:39;;;;;;;9.35;5.32;;;;;;;25.79;51.79;99930.38;7728621;32;38960;-80